Time;durP1;ratioP1;P1;durP2;ratioP2;P2;SDS_P1;SDS_P2;PMS_P1;PMS_P2;Temp;Humidity;BMP_temperature;BMP_pressure;BME280_temperature;BME280_humidity;BME280_pressure;Samples;Min_cycle;Max_cycle;Signal;HPM_P1;HPM_P2
2023/12/31 00:02:03;;;;;;;5.00;2.72;;;2.20;1.00;;;;;;5216008;28;20032;-31
2023/12/31 00:04:35;;;;;;;4.13;2.67;;;2.20;1.00;;;;;;5223485;28;20039;-33
2023/12/31 00:07:08;;;;;;;3.30;2.50;;;2.20;1.00;;;;;;5224857;28;20029;-32
2023/12/31 00:09:39;;;;;;;4.63;3.03;;;2.00;1.00;;;;;;5190958;28;20028;-32
2023/12/31 00:12:14;;;;;;;5.25;2.78;;;2.00;1.00;;;;;;5225618;28;20431;-32
2023/12/31 00:14:45;;;;;;;;;;;1.90;1.00;;;;;;5225584;28;20021;-31
2023/12/31 00:17:16;;;;;;;7.20;3.25;;;2.00;1.00;;;;;;5219032;28;19909;-31
2023/12/31 00:19:48;;;;;;;5.22;3.55;;;2.00;1.00;;;;;;5225233;28;20040;-31
2023/12/31 00:22:19;;;;;;;4.50;3.50;;;2.00;1.00;;;;;;5228433;28;20037;-32
2023/12/31 00:24:54;;;;;;;6.05;3.72;;;2.00;1.00;;;;;;5220718;28;20309;-32
2023/12/31 00:27:26;;;;;;;6.65;3.80;;;2.00;1.00;;;;;;5221438;28;20029;-32
2023/12/31 00:30:00;;;;;;;5.35;3.85;;;2.00;1.00;;;;;;5225175;28;20024;-36
2023/12/31 00:32:31;;;;;;;6.03;4.35;;;2.10;1.00;;;;;;5207358;28;20324;-32
2023/12/31 00:35:02;;;;;;;5.75;3.95;;;2.10;1.00;;;;;;5224412;28;20033;-32
2023/12/31 00:37:34;;;;;;;6.45;4.07;;;2.20;1.00;;;;;;5229019;28;20023;-31
2023/12/31 00:40:12;;;;;;;9.23;4.30;;;2.30;1.00;;;;;;5212043;28;20252;-31
2023/12/31 00:42:44;;;;;;;6.68;4.07;;;2.40;1.00;;;;;;5209503;28;20354;-32
2023/12/31 00:45:18;;;;;;;4.93;3.40;;;2.50;1.00;;;;;;5208301;28;20032;-32
2023/12/31 00:47:49;;;;;;;8.38;3.88;;;2.50;1.00;;;;;;5228946;28;20325;-31
2023/12/31 00:50:22;;;;;;;5.30;3.20;;;2.50;1.00;;;;;;5227541;28;20213;-31
2023/12/31 00:52:56;;;;;;;7.82;3.75;;;2.50;1.00;;;;;;5230481;28;20218;-31
2023/12/31 00:55:30;;;;;;;7.07;3.97;;;2.50;1.00;;;;;;5208512;28;20032;-32
2023/12/31 00:58:03;;;;;;;5.07;3.25;;;2.50;1.00;;;;;;5219421;28;20276;-32
2023/12/31 01:00:34;;;;;;;5.18;3.10;;;2.40;1.00;;;;;;5212451;28;20037;-32
2023/12/31 01:03:12;;;;;;;9.98;4.18;;;2.40;1.00;;;;;;5217227;28;20044;-32
2023/12/31 01:05:46;;;;;;;9.88;3.70;;;2.40;1.00;;;;;;5216889;28;20253;-32
2023/12/31 01:08:17;;;;;;;5.60;3.63;;;2.40;1.00;;;;;;5210803;28;20313;-32
2023/12/31 01:10:53;;;;;;;8.05;4.82;;;2.40;1.00;;;;;;5208594;28;20037;-32
2023/12/31 01:13:27;;;;;;;9.38;5.43;;;2.40;1.00;;;;;;5225883;28;20201;-32
2023/12/31 01:16:01;;;;;;;10.30;4.82;;;2.30;1.00;;;;;;5223517;28;20025;-32
2023/12/31 01:18:32;;;;;;;6.35;4.25;;;2.20;1.00;;;;;;5211022;28;20209;-32
2023/12/31 01:21:06;;;;;;;8.05;4.57;;;2.20;1.00;;;;;;5230711;28;20043;-32
2023/12/31 01:23:37;;;;;;;8.80;4.50;;;2.20;1.00;;;;;;5209655;28;20031;-32
2023/12/31 01:26:08;;;;;;;6.50;4.45;;;2.20;1.00;;;;;;5228896;28;20039;-32
2023/12/31 01:28:39;;;;;;;6.38;3.63;;;2.10;1.00;;;;;;5209340;28;20234;-34
2023/12/31 01:31:20;;;;;;;8.65;3.70;;;2.00;1.00;;;;;;5224611;28;20025;-31
2023/12/31 01:33:53;;;;;;;5.53;3.40;;;1.90;1.00;;;;;;5224892;28;20021;-32
2023/12/31 01:36:25;;;;;;;6.50;3.83;;;1.70;1.00;;;;;;5227775;28;20033;-32
2023/12/31 01:38:56;;;;;;;5.50;3.15;;;1.50;1.00;;;;;;5227433;28;20028;-32
2023/12/31 01:41:28;;;;;;;8.00;4.75;;;1.40;1.00;;;;;;5228452;28;20279;-32
2023/12/31 01:44:04;;;;;;;5.40;3.60;;;1.50;1.00;;;;;;5226284;28;20564;-32
2023/12/31 01:46:35;;;;;;;8.32;3.97;;;1.40;1.00;;;;;;5223531;28;20242;-32
2023/12/31 01:49:09;;;;;;;4.82;3.63;;;1.40;1.00;;;;;;5224869;28;20029;-32
2023/12/31 01:51:45;;;;;;;7.15;3.83;;;1.30;1.00;;;;;;5227464;28;20056;-32
2023/12/31 01:54:18;;;;;;;6.07;4.25;;;1.30;1.00;;;;;;5207124;28;20025;-31
2023/12/31 01:56:51;;;;;;;4.50;3.30;;;1.30;1.00;;;;;;5214100;28;20036;-31
2023/12/31 01:59:28;;;;;;;9.10;4.03;;;1.30;1.00;;;;;;5207140;28;20043;-31
2023/12/31 02:01:59;;;;;;;7.95;3.40;;;1.20;1.00;;;;;;5223669;28;20032;-33
2023/12/31 02:04:35;;;;;;;9.43;4.25;;;1.20;1.00;;;;;;5224544;28;20343;-31
2023/12/31 02:07:14;;;;;;;8.77;3.63;;;1.20;1.00;;;;;;5226227;28;20279;-31
2023/12/31 02:09:47;;;;;;;6.25;3.85;;;1.20;1.00;;;;;;5200046;28;20032;-31
2023/12/31 02:12:19;;;;;;;6.35;3.92;;;1.20;1.00;;;;;;5205936;28;20191;-31
2023/12/31 02:14:50;;;;;;;8.02;5.53;;;1.20;1.00;;;;;;5194224;28;20044;-32
2023/12/31 02:17:22;;;;;;;7.82;4.75;;;1.20;1.00;;;;;;5203659;28;20028;-31
2023/12/31 02:19:53;;;;;;;7.07;4.00;;;1.20;1.00;;;;;;5189611;28;20040;-32
2023/12/31 02:22:30;;;;;;;6.00;3.47;;;1.10;1.00;;;;;;5214912;28;20032;-32
2023/12/31 02:25:05;;;;;;;6.45;3.17;;;1.10;1.00;;;;;;5219296;28;20017;-32
2023/12/31 02:27:42;;;;;;;5.60;3.45;;;1.10;1.00;;;;;;5215013;28;20317;-31
2023/12/31 02:30:16;;;;;;;6.28;3.97;;;1.10;1.00;;;;;;5223595;28;20220;-32
2023/12/31 02:32:50;;;;;;;5.38;3.08;;;1.20;1.00;;;;;;5210128;28;20362;-32
2023/12/31 02:35:21;;;;;;;4.22;2.88;;;1.20;1.00;;;;;;5206283;28;20033;-31
2023/12/31 02:37:55;;;;;;;6.50;3.00;;;1.20;1.00;;;;;;5199963;28;20044;-31
2023/12/31 02:40:31;;;;;;;4.05;3.13;;;1.20;1.00;;;;;;5192943;28;20070;-32
2023/12/31 02:43:04;;;;;;;5.32;2.78;;;1.20;1.00;;;;;;5226182;28;20676;-31
2023/12/31 02:45:38;;;;;;;6.47;3.88;;;1.20;1.00;;;;;;5219733;28;20033;-31
2023/12/31 02:48:09;;;;;;;9.10;3.80;;;1.20;1.00;;;;;;5217398;28;20037;-31
2023/12/31 02:50:40;;;;;;;3.97;2.97;;;1.20;1.00;;;;;;5222225;28;20241;-31
2023/12/31 02:53:12;;;;;;;8.23;3.33;;;1.20;1.00;;;;;;5230213;28;20051;-31
2023/12/31 02:55:48;;;;;;;7.10;3.65;;;1.30;1.00;;;;;;5219749;28;20031;-31
2023/12/31 02:58:19;;;;;;;4.75;3.17;;;1.30;1.00;;;;;;5223986;28;20029;-31
2023/12/31 03:00:50;;;;;;;4.30;2.40;;;1.20;1.00;;;;;;5221583;28;20032;-34
2023/12/31 03:03:23;;;;;;;4.30;3.03;;;1.20;1.00;;;;;;5226251;28;20043;-32
2023/12/31 03:05:55;;;;;;;6.43;3.97;;;1.20;1.00;;;;;;5222003;28;20048;-32
2023/12/31 03:08:26;;;;;;;5.57;3.75;;;1.10;1.00;;;;;;5223487;28;20248;-31
2023/12/31 03:11:00;;;;;;;5.13;3.67;;;1.10;1.00;;;;;;5206100;28;20039;-32
2023/12/31 03:13:31;;;;;;;6.88;3.88;;;1.10;1.00;;;;;;5206012;28;20029;-32
2023/12/31 03:16:09;;;;;;;9.90;4.43;;;1.00;1.00;;;;;;5207152;28;20044;-32
2023/12/31 03:18:40;;;;;;;6.07;3.80;;;1.00;1.00;;;;;;5226795;28;20033;-32
2023/12/31 03:21:15;;;;;;;7.07;4.53;;;1.00;1.00;;;;;;5217916;28;20029;-32
2023/12/31 03:23:47;;;;;;;7.82;3.65;;;1.00;1.00;;;;;;5208807;28;20231;-32
2023/12/31 03:26:18;;;;;;;5.40;3.70;;;0.80;1.00;;;;;;5208019;28;20028;-32
2023/12/31 03:28:52;;;;;;;5.10;3.80;;;0.70;1.00;;;;;;5208142;28;20028;-32
2023/12/31 03:31:26;;;;;;;8.77;4.50;;;0.70;1.00;;;;;;5224229;28;20035;-32
2023/12/31 03:33:57;;;;;;;7.32;4.53;;;0.70;1.00;;;;;;5226414;28;20250;-32
2023/12/31 03:36:31;;;;;;;8.63;4.47;;;0.80;1.00;;;;;;5191340;28;20029;-32
2023/12/31 03:39:05;;;;;;;8.10;4.40;;;0.80;1.00;;;;;;5209080;28;20031;-32
2023/12/31 03:41:36;;;;;;;6.38;4.22;;;0.70;1.00;;;;;;5223028;28;20021;-32
2023/12/31 03:44:10;;;;;;;5.85;4.13;;;0.70;1.00;;;;;;5224091;28;20021;-32
2023/12/31 03:46:46;;;;;;;5.30;3.25;;;0.70;1.00;;;;;;5204597;28;20033;-32
2023/12/31 03:49:23;;;;;;;6.47;3.47;;;0.70;1.00;;;;;;5207576;28;20377;-32
2023/12/31 03:51:57;;;;;;;5.38;3.35;;;0.70;1.00;;;;;;5210691;28;20028;-32
2023/12/31 03:54:28;;;;;;;;;;;0.60;1.00;;;;;;5214459;28;20029;-31
2023/12/31 03:57:02;;;;;;;4.97;3.50;;;0.70;1.00;;;;;;5219839;28;19900;-31
2023/12/31 03:59:37;;;;;;;5.78;3.63;;;0.70;1.00;;;;;;5227782;28;20358;-34
2023/12/31 04:02:13;;;;;;;7.50;4.25;;;0.80;1.00;;;;;;5194931;28;20067;-32
2023/12/31 04:04:44;;;;;;;5.70;3.70;;;0.80;1.00;;;;;;5226793;28;20032;-32
2023/12/31 04:07:21;;;;;;;7.50;4.43;;;0.70;1.00;;;;;;5219578;28;20044;-31
2023/12/31 04:09:54;;;;;;;9.32;4.00;;;0.60;1.00;;;;;;5232962;28;20066;-32
2023/12/31 04:12:25;;;;;;;4.38;2.95;;;0.60;1.00;;;;;;5231467;28;20033;-32
2023/12/31 04:14:59;;;;;;;5.80;3.38;;;0.50;1.00;;;;;;5215062;28;20029;-32
2023/12/31 04:17:33;;;;;;;5.25;3.50;;;0.40;1.00;;;;;;5211075;28;20032;-32
2023/12/31 04:20:10;;;;;;;6.00;4.25;;;0.40;1.00;;;;;;5233180;28;20028;-32
2023/12/31 04:22:49;;;;;;;6.43;4.05;;;0.40;1.00;;;;;;5221270;28;20359;-32
2023/12/31 04:25:25;;;;;;;5.00;4.10;;;0.40;1.00;;;;;;5240530;28;20029;-31
2023/12/31 04:28:01;;;;;;;6.30;4.00;;;0.20;1.00;;;;;;5211323;28;20029;-31
2023/12/31 04:30:33;;;;;;;5.88;4.10;;;0.20;1.00;;;;;;5190822;28;20037;-31
2023/12/31 04:33:09;;;;;;;5.82;3.92;;;0.20;1.00;;;;;;5211048;28;20029;-34
2023/12/31 04:35:42;;;;;;;6.82;4.65;;;0.20;1.00;;;;;;5230185;28;20025;-31
2023/12/31 04:38:13;;;;;;;10.05;4.55;;;0.00;1.00;;;;;;5231691;28;20046;-31
2023/12/31 04:40:46;;;;;;;6.95;4.25;;;-0.10;1.00;;;;;;5232921;28;20024;-31
2023/12/31 04:43:18;;;;;;;8.40;4.65;;;-0.10;1.00;;;;;;5231504;28;20033;-32
2023/12/31 04:45:52;;;;;;;7.57;4.72;;;0.00;1.00;;;;;;5197037;28;20033;-32
2023/12/31 04:48:26;;;;;;;12.40;5.40;;;0.20;1.00;;;;;;5211823;28;20380;-32
2023/12/31 04:51:03;;;;;;;8.68;6.40;;;0.30;1.00;;;;;;5229809;28;20025;-32
2023/12/31 04:53:34;;;;;;;7.10;5.32;;;0.50;1.00;;;;;;5217636;28;20031;-32
2023/12/31 04:56:05;;;;;;;9.55;5.78;;;0.80;1.00;;;;;;5200865;28;20231;-32
2023/12/31 04:58:42;;;;;;;16.88;8.52;;;0.90;1.00;;;;;;5211371;28;20037;-32
2023/12/31 05:01:16;;;;;;;12.82;6.50;;;1.10;1.00;;;;;;5231456;28;20040;-32
2023/12/31 05:03:49;;;;;;;;;;;1.30;1.00;;;;;;5240975;28;20037;-32
2023/12/31 05:06:22;;;;;;;11.65;6.78;;;1.40;1.00;;;;;;5251475;28;20195;-32
2023/12/31 05:08:53;;;;;;;21.63;8.57;;;1.50;1.00;;;;;;5238228;28;20033;-32
2023/12/31 05:11:26;;;;;;;15.30;8.05;;;1.60;1.00;;;;;;5230830;28;20029;-33
2023/12/31 05:13:57;;;;;;;16.23;8.07;;;1.70;1.00;;;;;;5229679;28;20043;-33
2023/12/31 05:16:31;;;;;;;16.10;8.35;;;1.80;1.00;;;;;;5206152;28;20017;-32
2023/12/31 05:19:07;;;;;;;20.85;9.60;;;1.80;1.00;;;;;;5210867;28;20025;-32
2023/12/31 05:21:39;;;;;;;19.23;9.57;;;1.80;1.00;;;;;;5193989;28;20029;-32
2023/12/31 05:24:15;;;;;;;18.50;10.68;;;1.90;1.00;;;;;;5251947;28;20035;-32
2023/12/31 05:26:47;;;;;;;27.48;9.70;;;1.90;1.00;;;;;;5222029;28;20021;-32
2023/12/31 05:29:18;;;;;;;18.20;9.65;;;1.90;1.00;;;;;;5227988;28;20047;-32
2023/12/31 05:31:55;;;;;;;29.60;11.45;;;2.00;1.00;;;;;;5227832;28;20039;-36
2023/12/31 05:34:29;;;;;;;31.65;12.25;;;2.10;1.00;;;;;;5230521;28;20020;-31
2023/12/31 05:37:01;;;;;;;36.22;12.27;;;2.20;1.00;;;;;;5225951;28;20036;-31
2023/12/31 05:39:37;;;;;;;28.23;10.88;;;2.30;1.00;;;;;;5210516;28;20029;-31
2023/12/31 05:42:11;;;;;;;30.02;12.50;;;2.40;1.00;;;;;;5224619;28;20033;-31
2023/12/31 05:44:45;;;;;;;28.10;12.85;;;2.40;1.00;;;;;;5218882;28;20036;-31
2023/12/31 05:47:16;;;;;;;29.15;13.02;;;2.40;1.00;;;;;;5228191;28;20033;-31
2023/12/31 05:49:48;;;;;;;75.85;14.10;;;2.50;1.00;;;;;;5230663;28;20028;-32
2023/12/31 05:52:22;;;;;;;33.72;13.13;;;2.40;1.00;;;;;;5237148;28;20042;-31
2023/12/31 05:54:56;;;;;;;37.80;13.20;;;2.40;1.00;;;;;;5227853;28;20029;-32
2023/12/31 05:57:30;;;;;;;34.72;13.20;;;2.50;1.00;;;;;;5208828;28;20512;-32
2023/12/31 06:00:05;;;;;;;32.30;12.30;;;2.40;1.00;;;;;;5207632;28;20101;-32
2023/12/31 06:02:36;;;;;;;31.98;15.02;;;2.50;1.00;;;;;;5211643;28;20026;-32
2023/12/31 06:05:13;;;;;;;30.48;13.55;;;2.70;1.00;;;;;;5230371;28;20024;-31
2023/12/31 06:07:48;;;;;;;47.33;14.85;;;2.70;1.00;;;;;;5211802;28;20237;-31
2023/12/31 06:10:27;;;;;;;28.30;13.52;;;2.80;1.00;;;;;;5229861;28;20477;-31
2023/12/31 06:12:58;;;;;;;30.38;13.57;;;2.80;1.00;;;;;;5230263;28;20025;-31
2023/12/31 06:15:35;;;;;;;38.88;13.80;;;2.80;1.00;;;;;;5227463;28;20190;-32
2023/12/31 06:18:15;;;;;;;41.72;14.70;;;2.80;1.00;;;;;;5230042;28;20215;-32
2023/12/31 06:20:46;;;;;;;43.50;13.80;;;2.80;1.00;;;;;;5211574;28;20220;-31
2023/12/31 06:23:17;;;;;;;33.72;13.27;;;2.90;1.00;;;;;;5228333;28;20036;-31
2023/12/31 06:25:53;;;;;;;32.30;13.98;;;2.90;1.00;;;;;;5207256;28;20253;-32
2023/12/31 06:28:25;;;;;;;56.30;15.40;;;3.00;1.00;;;;;;5191267;28;20348;-31
2023/12/31 06:30:56;;;;;;;49.90;15.80;;;3.00;1.00;;;;;;5213776;28;20037;-32
2023/12/31 06:33:28;;;;;;;40.05;15.40;;;2.90;1.00;;;;;;5238308;28;20040;-32
2023/12/31 06:35:59;;;;;;;48.08;13.73;;;2.90;1.00;;;;;;5249882;28;20074;-31
2023/12/31 06:38:31;;;;;;;36.80;13.68;;;2.80;1.00;;;;;;5232334;28;20047;-31
2023/12/31 06:41:10;;;;;;;44.63;14.48;;;2.80;1.00;;;;;;5215950;28;20299;-31
2023/12/31 06:43:43;;;;;;;53.83;16.35;;;2.80;1.00;;;;;;5227949;28;20340;-31
2023/12/31 06:46:16;;;;;;;78.85;17.55;;;2.60;1.00;;;;;;5225596;28;20363;-31
2023/12/31 06:48:48;;;;;;;75.00;15.98;;;2.60;1.00;;;;;;5228888;28;20035;-31
2023/12/31 06:51:20;;;;;;;72.13;16.20;;;2.60;1.00;;;;;;5208756;28;20048;-31
2023/12/31 06:53:54;;;;;;;51.60;15.18;;;2.60;1.00;;;;;;5213823;28;20312;-32
2023/12/31 06:56:27;;;;;;;47.65;16.60;;;2.80;1.00;;;;;;5212785;28;20033;-31
2023/12/31 06:58:58;;;;;;;32.83;14.88;;;3.00;1.00;;;;;;5214908;28;20037;-32
2023/12/31 07:01:30;;;;;;;50.95;16.52;;;3.20;1.00;;;;;;5203369;28;20033;-31
2023/12/31 07:04:01;;;;;;;48.88;18.67;;;3.20;1.00;;;;;;5216489;28;20041;-34
2023/12/31 07:06:35;;;;;;;46.00;17.95;;;3.30;1.00;;;;;;5215852;28;20029;-31
2023/12/31 07:09:07;;;;;;;48.22;17.95;;;3.40;1.00;;;;;;5208915;28;20036;-31
2023/12/31 07:11:38;;;;;;;37.95;17.08;;;3.40;1.00;;;;;;5216453;28;20021;-31
2023/12/31 07:14:09;;;;;;;60.80;17.23;;;3.40;1.00;;;;;;5209667;28;20324;-31
2023/12/31 07:16:40;;;;;;;45.10;15.43;;;3.50;1.00;;;;;;5222759;28;20055;-31
2023/12/31 07:19:14;;;;;;;39.50;16.50;;;3.50;1.00;;;;;;5201804;28;20060;-31
2023/12/31 07:21:51;;;;;;;41.03;15.88;;;3.50;1.00;;;;;;5213008;28;20298;-31
2023/12/31 07:24:25;;;;;;;54.15;16.33;;;3.60;1.00;;;;;;5215518;28;20021;-31
2023/12/31 07:26:59;;;;;;;76.55;19.02;;;3.50;1.00;;;;;;5226558;28;20025;-31
2023/12/31 07:29:30;;;;;;;36.55;16.05;;;3.60;1.00;;;;;;5214195;28;20037;-33
2023/12/31 07:32:04;;;;;;;53.35;16.45;;;3.70;1.00;;;;;;5181257;28;20327;-31
2023/12/31 07:34:38;;;;;;;41.03;15.82;;;3.80;1.00;;;;;;5218549;28;20021;-31
2023/12/31 07:37:15;;;;;;;52.47;17.60;;;3.70;1.00;;;;;;5218604;28;20031;-31
2023/12/31 07:39:46;;;;;;;38.67;16.40;;;3.70;1.00;;;;;;5211329;28;20040;-31
2023/12/31 07:42:17;;;;;;;40.38;17.08;;;3.70;1.00;;;;;;5211652;28;20029;-31
2023/12/31 07:44:48;;;;;;;58.75;18.70;;;3.70;1.00;;;;;;5210077;28;20025;-31
2023/12/31 07:47:27;;;;;;;38.30;15.27;;;3.70;1.00;;;;;;5206401;28;20035;-31
2023/12/31 07:50:01;;;;;;;47.97;15.30;;;3.60;1.00;;;;;;5208317;28;20221;-31
2023/12/31 07:52:34;;;;;;;46.25;17.85;;;3.70;1.00;;;;;;5219642;28;20033;-31
2023/12/31 07:55:08;;;;;;;53.47;17.27;;;3.60;1.00;;;;;;5220494;28;20047;-32
2023/12/31 07:57:40;;;;;;;41.80;16.27;;;3.50;1.00;;;;;;5203808;28;20047;-32
2023/12/31 08:00:12;;;;;;;45.15;15.23;;;3.50;1.00;;;;;;5219362;28;20045;-32
2023/12/31 08:02:46;;;;;;;37.88;14.95;;;3.50;1.00;;;;;;5233601;28;20467;-32
2023/12/31 08:05:22;;;;;;;40.63;14.60;;;3.40;1.00;;;;;;5223479;28;20354;-32
2023/12/31 08:07:57;;;;;;;38.55;15.43;;;3.30;1.00;;;;;;5218164;28;20041;-31
2023/12/31 08:10:31;;;;;;;35.75;13.90;;;3.30;1.00;;;;;;5189387;28;20033;-32
2023/12/31 08:13:02;;;;;;;40.95;15.75;;;3.20;1.00;;;;;;5222968;28;20221;-32
2023/12/31 08:15:38;;;;;;;31.90;15.93;;;3.10;1.00;;;;;;5203938;28;20029;-31
2023/12/31 08:18:15;;;;;;;27.83;14.30;;;3.00;1.00;;;;;;5223897;28;20466;-31
2023/12/31 08:20:49;;;;;;;25.25;12.88;;;2.90;1.00;;;;;;5190267;28;20041;-32
2023/12/31 08:23:23;;;;;;;26.77;12.50;;;2.90;1.00;;;;;;5213357;28;20037;-31
2023/12/31 08:26:00;;;;;;;30.25;14.13;;;3.00;1.00;;;;;;5183275;28;20041;-32
2023/12/31 08:28:31;;;;;;;26.20;12.70;;;3.00;1.00;;;;;;5173475;28;20256;-32
2023/12/31 08:31:04;;;;;;;25.00;13.90;;;3.00;1.00;;;;;;5212043;28;20033;-32
2023/12/31 08:33:36;;;;;;;27.42;14.27;;;3.10;1.00;;;;;;5215791;28;20268;-33
2023/12/31 08:36:10;;;;;;;28.38;13.45;;;3.30;1.00;;;;;;5220202;28;20035;-33
2023/12/31 08:38:41;;;;;;;24.92;11.95;;;3.40;1.00;;;;;;5183246;28;20051;-31
2023/12/31 08:41:12;;;;;;;25.48;12.38;;;3.50;1.00;;;;;;5223438;28;20043;-32
2023/12/31 08:43:48;;;;;;;20.73;10.60;;;3.70;1.00;;;;;;5207267;28;20045;-31
2023/12/31 08:46:24;;;;;;;21.17;10.95;;;3.50;1.00;;;;;;5216713;28;20033;-32
2023/12/31 08:48:59;;;;;;;20.55;9.40;;;3.70;1.00;;;;;;5226459;28;20029;-31
2023/12/31 08:51:32;;;;;;;21.30;11.15;;;3.80;1.00;;;;;;5209145;28;20032;-31
2023/12/31 08:54:07;;;;;;;21.30;10.93;;;4.00;1.00;;;;;;5221529;28;20033;-31
2023/12/31 08:56:39;;;;;;;21.25;10.32;;;4.10;1.00;;;;;;5216212;28;20048;-31
2023/12/31 08:59:10;;;;;;;19.52;9.77;;;4.30;99.90;;;;;;5231495;28;20353;-31
2023/12/31 09:01:44;;;;;;;21.27;11.07;;;4.40;99.90;;;;;;5227377;28;20429;-33
2023/12/31 09:04:15;;;;;;;18.25;8.93;;;4.50;1.00;;;;;;5230141;28;20229;-32
2023/12/31 09:06:47;;;;;;;16.67;8.77;;;4.40;99.90;;;;;;5211834;28;20054;-34
2023/12/31 09:09:19;;;;;;;18.20;8.98;;;4.40;99.90;;;;;;5229790;28;20040;-33
2023/12/31 09:11:54;;;;;;;21.48;10.07;;;4.40;99.90;;;;;;5212933;28;20225;-35
2023/12/31 09:14:25;;;;;;;20.40;9.85;;;4.40;1.00;;;;;;5227207;28;20037;-33
2023/12/31 09:16:56;;;;;;;20.92;10.30;;;4.60;1.00;;;;;;5225006;28;20037;-33
2023/12/31 09:19:28;;;;;;;20.13;10.23;;;4.70;1.00;;;;;;5212061;28;20048;-33
2023/12/31 09:22:02;;;;;;;16.17;8.63;;;4.70;99.90;;;;;;5229823;28;20027;-33
2023/12/31 09:24:35;;;;;;;18.52;10.07;;;4.80;99.90;;;;;;5212311;28;20037;-30
2023/12/31 09:27:09;;;;;;;15.05;8.23;;;4.80;1.00;;;;;;5230533;28;20036;-31
2023/12/31 09:29:44;;;;;;;13.77;7.53;;;4.90;1.00;;;;;;5231046;28;20318;-31
2023/12/31 09:32:18;;;;;;;14.52;8.20;;;5.10;99.90;;;;;;5218167;28;20032;-31
2023/12/31 09:34:52;;;;;;;13.60;7.85;;;5.20;99.90;;;;;;5229963;28;20059;-33
2023/12/31 09:37:24;;;;;;;14.30;8.57;;;5.00;48.20;;;;;;5222314;28;20037;-31
2023/12/31 09:39:57;;;;;;;17.17;8.88;;;4.80;99.90;;;;;;5210949;28;20033;-31
2023/12/31 09:42:42;;;;;;;15.85;8.60;;;4.70;99.90;;;;;;5229584;28;20029;-31
2023/12/31 09:45:14;;;;;;;17.02;9.98;;;4.70;1.00;;;;;;5210266;28;20044;-31
2023/12/31 09:47:49;;;;;;;20.88;9.93;;;4.90;1.00;;;;;;5210287;28;20320;-31
2023/12/31 09:50:25;;;;;;;17.75;9.00;;;5.00;1.00;;;;;;5212341;28;20353;-31
2023/12/31 09:52:57;;;;;;;21.48;10.35;;;5.10;99.90;;;;;;5218866;28;20024;-31
2023/12/31 09:55:33;;;;;;;16.58;9.70;;;5.10;99.90;;;;;;5227860;28;20031;-31
2023/12/31 09:58:06;;;;;;;20.00;9.63;;;4.80;99.90;;;;;;5218840;28;20025;-31
2023/12/31 10:00:37;;;;;;;21.20;9.98;;;4.70;99.90;;;;;;5224119;28;20347;-32
2023/12/31 10:03:10;;;;;;;17.85;9.90;;;4.70;1.00;;;;;;5228645;28;20043;-32
2023/12/31 10:05:44;;;;;;;20.70;10.48;;;4.70;1.00;;;;;;5229975;28;20033;-32
2023/12/31 10:08:24;;;;;;;21.83;9.63;;;4.90;1.00;;;;;;5218491;28;20063;-32
2023/12/31 10:10:59;;;;;;;17.73;9.57;;;5.10;1.00;;;;;;5209168;28;20314;-32
2023/12/31 10:13:33;;;;;;;19.63;10.23;;;5.30;1.00;;;;;;5218286;28;20374;-32
2023/12/31 10:16:14;;;;;;;22.50;10.18;;;5.30;99.90;;;;;;5208952;28;20222;-32
2023/12/31 10:18:48;;;;;;;18.08;10.32;;;5.50;1.00;;;;;;5228399;28;20209;-32
2023/12/31 10:21:22;;;;;;;18.58;10.02;;;5.60;99.90;;;;;;5222367;28;20037;-32
2023/12/31 10:23:53;;;;;;;20.20;10.93;;;5.50;1.00;;;;;;5216718;28;20075;-32
2023/12/31 10:26:25;;;;;;;19.48;9.63;;;5.40;1.00;;;;;;5223276;28;20017;-32
2023/12/31 10:29:01;;;;;;;21.25;10.75;;;5.50;46.30;;;;;;5210586;28;20052;-32
2023/12/31 10:31:34;;;;;;;18.63;9.98;;;5.50;97.00;;;;;;5225211;28;20027;-32
2023/12/31 10:34:16;;;;;;;24.03;11.27;;;5.40;1.00;;;;;;5211025;28;20324;-31
2023/12/31 10:36:48;;;;;;;21.42;9.77;;;5.10;1.00;;;;;;5228599;28;20246;-31
2023/12/31 10:39:31;;;;;;;21.23;10.65;;;4.80;99.90;;;;;;5224897;28;20308;-31
2023/12/31 10:42:08;;;;;;;18.50;10.50;;;4.80;1.00;;;;;;5211494;28;20583;-33
2023/12/31 10:44:42;;;;;;;21.65;10.30;;;4.50;95.00;;;;;;5211103;28;20025;-31
2023/12/31 10:47:18;;;;;;;21.17;10.10;;;4.20;1.00;;;;;;5207358;28;20036;-31
2023/12/31 10:49:50;;;;;;;18.33;9.73;;;4.10;99.90;;;;;;5210077;28;20033;-31
2023/12/31 10:52:21;;;;;;;19.25;9.32;;;4.00;1.00;;;;;;5225870;28;20059;-31
2023/12/31 10:54:59;;;;;;;18.13;9.52;;;4.00;1.00;;;;;;5226394;28;20025;-31
2023/12/31 10:57:33;;;;;;;25.13;11.75;;;4.00;1.00;;;;;;5223186;28;20046;-31
2023/12/31 11:00:11;;;;;;;18.63;10.32;;;4.10;1.00;;;;;;5224233;28;20029;-31
2023/12/31 11:02:46;;;;;;;29.70;13.93;;;4.20;1.00;;;;;;5223862;28;20059;-31
2023/12/31 11:05:19;;;;;;;17.77;8.70;;;4.40;1.00;;;;;;5225552;28;20032;-31
2023/12/31 11:07:52;;;;;;;23.83;12.80;;;4.50;99.90;;;;;;5225949;28;20028;-32
2023/12/31 11:10:27;;;;;;;20.63;11.13;;;4.40;99.90;;;;;;5207469;28;20048;-32
2023/12/31 11:12:58;;;;;;;;;;;4.50;1.00;;;;;;5209304;28;20024;-32
2023/12/31 11:15:31;;;;;;;25.00;13.02;;;4.60;99.90;;;;;;5224400;28;20238;-34
2023/12/31 11:18:15;;;;;;;20.90;10.32;;;4.40;99.90;;;;;;5208261;28;20043;-32
2023/12/31 11:21:03;;;;;;;16.38;8.55;;;4.40;99.90;;;;;;5209327;28;20493;-32
2023/12/31 11:23:50;;;;;;;19.35;10.20;;;4.30;1.00;;;;;;5208580;28;20224;-32
2023/12/31 11:26:28;;;;;;;20.23;10.82;;;4.40;1.00;;;;;;5203892;28;20021;-31
2023/12/31 11:29:03;;;;;;;14.30;8.02;;;4.50;99.90;;;;;;5226568;28;20047;-31
2023/12/31 11:31:40;;;;;;;17.05;8.43;;;4.40;99.90;;;;;;5222770;28;20542;-31
2023/12/31 11:34:13;;;;;;;13.95;8.18;;;4.10;99.90;;;;;;5221900;28;20021;-31
2023/12/31 11:36:46;;;;;;;14.60;7.77;;;4.00;1.00;;;;;;5226861;28;20037;-31
2023/12/31 11:39:24;;;;;;;13.40;7.70;;;3.90;1.00;;;;;;5224473;28;20592;-31
2023/12/31 11:42:03;;;;;;;13.63;6.70;;;4.10;1.00;;;;;;5223443;28;20047;-31
2023/12/31 11:44:45;;;;;;;13.70;7.32;;;4.00;1.00;;;;;;5216174;28;20252;-31
2023/12/31 11:47:29;;;;;;;12.27;7.57;;;4.10;1.00;;;;;;5213466;28;20033;-31
2023/12/31 11:50:01;;;;;;;;;;;4.10;99.90;;;;;;5225132;28;20060;-32
2023/12/31 11:52:41;;;;;;;14.10;7.47;;;4.10;99.90;;;;;;5221617;28;19996;-32
2023/12/31 11:55:15;;;;;;;16.35;8.07;;;4.10;1.00;;;;;;5206707;28;20033;-32
2023/12/31 11:57:50;;;;;;;13.77;7.68;;;4.10;99.90;;;;;;5224282;28;20029;-31
2023/12/31 12:00:24;;;;;;;14.50;7.13;;;4.00;99.90;;;;;;5206023;28;20039;-31
2023/12/31 12:02:56;;;;;;;13.38;7.97;;;4.00;1.00;;;;;;5224679;28;20041;-31
2023/12/31 12:05:27;;;;;;;16.00;8.65;;;4.10;99.90;;;;;;5207060;28;20037;-31
2023/12/31 12:07:59;;;;;;;14.60;7.38;;;4.00;99.90;;;;;;5211832;28;20039;-31
2023/12/31 12:10:33;;;;;;;13.63;7.43;;;4.30;1.00;;;;;;5206726;28;20424;-31
2023/12/31 12:13:05;;;;;;;13.20;7.05;;;4.70;99.90;;;;;;5205519;28;20025;-31
2023/12/31 12:15:38;;;;;;;15.82;8.07;;;4.70;1.00;;;;;;5216444;28;20036;-31
2023/12/31 12:18:22;;;;;;;14.25;7.43;;;4.90;1.00;;;;;;5223452;28;20043;-31
2023/12/31 12:20:58;;;;;;;12.30;7.15;;;4.90;1.00;;;;;;5223177;28;20039;-31
2023/12/31 12:23:35;;;;;;;24.95;7.47;;;4.70;99.90;;;;;;5221229;28;20209;-31
2023/12/31 12:26:08;;;;;;;14.40;7.15;;;4.80;99.90;;;;;;5214297;28;20052;-31
2023/12/31 12:28:42;;;;;;;18.90;7.67;;;4.80;1.00;;;;;;5224104;28;20067;-31
2023/12/31 12:31:17;;;;;;;13.10;7.18;;;4.70;99.90;;;;;;5210151;28;20029;-31
2023/12/31 12:33:56;;;;;;;15.07;8.27;;;4.60;99.90;;;;;;5230401;28;20027;-31
2023/12/31 12:36:30;;;;;;;14.55;7.63;;;4.70;99.90;;;;;;5224994;28;20095;-31
2023/12/31 12:39:05;;;;;;;;;;;4.60;93.30;;;;;;5221222;28;20217;-31
2023/12/31 12:41:38;;;;;;;12.60;7.17;;;4.40;99.90;;;;;;5214181;28;19915;-31
2023/12/31 12:44:16;;;;;;;15.60;8.00;;;4.20;1.00;;;;;;5223492;28;20284;-31
2023/12/31 12:46:50;;;;;;;13.05;7.25;;;4.10;1.00;;;;;;5208914;28;20349;-31
2023/12/31 12:49:24;;;;;;;12.73;7.78;;;4.20;99.90;;;;;;5226973;28;20047;-31
2023/12/31 12:51:59;;;;;;;14.35;7.32;;;4.20;99.90;;;;;;5216037;28;20063;-31
2023/12/31 12:54:33;;;;;;;15.98;8.35;;;4.20;99.90;;;;;;5219011;28;20226;-31
2023/12/31 12:57:06;;;;;;;15.30;8.57;;;4.00;11.60;;;;;;5229902;28;20037;-32
2023/12/31 12:59:37;;;;;;;13.30;7.07;;;4.20;99.90;;;;;;5228764;28;20068;-32
2023/12/31 13:02:08;;;;;;;15.88;8.23;;;4.30;99.90;;;;;;5214916;28;20309;-32
2023/12/31 13:04:40;;;;;;;12.82;7.15;;;4.30;1.00;;;;;;5214879;28;20024;-34
2023/12/31 13:07:11;;;;;;;14.88;7.60;;;4.30;1.00;;;;;;5220767;28;20030;-32
2023/12/31 13:09:43;;;;;;;14.80;7.50;;;4.30;1.00;;;;;;5217842;28;20039;-32
2023/12/31 13:12:17;;;;;;;17.27;8.23;;;4.40;1.00;;;;;;5217889;28;20363;-32
2023/12/31 13:14:52;;;;;;;16.38;7.90;;;4.30;1.00;;;;;;5222802;28;20044;-31
2023/12/31 13:17:26;;;;;;;15.32;7.20;;;4.10;1.00;;;;;;5200080;28;20037;-31
2023/12/31 13:20:01;;;;;;;12.73;7.40;;;4.00;96.50;;;;;;5224307;28;20040;-31
2023/12/31 13:22:35;;;;;;;15.52;7.50;;;4.20;1.00;;;;;;5205770;28;20037;-32
2023/12/31 13:25:13;;;;;;;13.18;7.88;;;4.10;99.90;;;;;;5221707;28;20021;-32
2023/12/31 13:27:44;;;;;;;13.65;7.18;;;4.20;99.90;;;;;;5215212;28;20049;-32
2023/12/31 13:30:16;;;;;;;14.80;8.40;;;4.30;99.90;;;;;;5217499;28;20049;-32
2023/12/31 13:32:51;;;;;;;14.50;7.43;;;4.20;1.00;;;;;;5220643;28;20037;-32